Time;durP1;ratioP1;P1;durP2;ratioP2;P2;SDS_P1;SDS_P2;PMS_P1;PMS_P2;Temp;Humidity;BMP_temperature;BMP_pressure;BME280_temperature;BME280_humidity;BME280_pressure;Samples;Min_cycle;Max_cycle;Signal;HPM_P1;HPM_P2
2021/10/09 04:01:14;;;;;;;13.53;7.97;;;0.80;96.30;;;;;;5571818;23;20496;-77
2021/10/09 04:03:39;;;;;;;13.63;8.07;;;0.80;96.30;;;;;;4981432;28;20417;-77
2021/10/09 04:06:05;;;;;;;12.40;8.03;;;0.70;96.30;;;;;;4987501;28;20183;-76
2021/10/09 04:08:31;;;;;;;24.10;8.67;;;0.60;96.30;;;;;;4972940;28;20229;-76
2021/10/09 04:10:56;;;;;;;12.33;7.63;;;0.40;96.30;;;;;;4972454;28;20284;-75
2021/10/09 04:13:22;;;;;;;12.03;7.73;;;0.30;96.30;;;;;;4973982;28;20182;-75
2021/10/09 04:15:47;;;;;;;12.50;7.17;;;0.10;96.30;;;;;;4974579;28;20214;-76
2021/10/09 04:18:12;;;;;;;14.47;7.20;;;0.10;96.30;;;;;;4975738;28;20182;-77
2021/10/09 04:20:38;;;;;;;11.90;6.40;;;0.00;96.30;;;;;;4975032;28;20194;-77
2021/10/09 04:23:05;;;;;;;13.33;6.70;;;-0.10;96.30;;;;;;4974257;28;20594;-76
2021/10/09 04:25:30;;;;;;;18.63;7.50;;;-0.20;96.30;;;;;;4974988;28;20232;-77
2021/10/09 04:27:56;;;;;;;11.80;6.07;;;-0.30;96.30;;;;;;4990969;28;20837;-77
2021/10/09 04:30:21;;;;;;;24.70;8.90;;;-0.40;96.30;;;;;;4994089;28;20652;-76
2021/10/09 04:32:47;;;;;;;13.77;8.07;;;-0.30;96.30;;;;;;4994707;28;20244;-77
2021/10/09 04:35:12;;;;;;;15.20;8.00;;;-0.30;96.30;;;;;;4995518;28;20201;-77
2021/10/09 04:37:38;;;;;;;19.93;7.60;;;-0.40;96.30;;;;;;4995532;28;20178;-76
2021/10/09 04:40:04;;;;;;;12.23;7.53;;;-0.40;96.30;;;;;;4995195;28;20665;-77
2021/10/09 04:42:30;;;;;;;23.00;8.00;;;-0.50;96.30;;;;;;4994763;28;20200;-76
2021/10/09 04:44:55;;;;;;;12.70;6.50;;;-0.50;96.30;;;;;;4993986;28;20421;-77
2021/10/09 04:47:21;;;;;;;11.63;7.20;;;-0.50;96.30;;;;;;4995323;28;20180;-77
2021/10/09 04:49:46;;;;;;;11.50;7.10;;;-0.60;96.30;;;;;;4995145;28;20173;-77
2021/10/09 04:52:12;;;;;;;19.57;7.67;;;-0.60;96.30;;;;;;4994564;28;20204;-77
2021/10/09 04:54:37;;;;;;;18.47;6.50;;;-0.60;96.30;;;;;;4995072;28;20178;-77
2021/10/09 04:57:03;;;;;;;12.77;6.70;;;-0.60;96.30;;;;;;4993707;28;20178;-77
2021/10/09 04:59:29;;;;;;;8.30;6.63;;;-0.70;96.30;;;;;;4995083;28;20193;-76
2021/10/09 05:01:54;;;;;;;20.13;7.07;;;-0.70;96.30;;;;;;4993100;28;20205;-77
2021/10/09 05:04:20;;;;;;;11.23;6.80;;;-0.70;96.30;;;;;;4993460;28;20205;-77
2021/10/09 05:06:45;;;;;;;30.60;8.83;;;-0.70;96.30;;;;;;4993726;28;20208;-75
2021/10/09 05:09:11;;;;;;;10.73;7.40;;;-0.70;96.30;;;;;;4993408;28;20273;-76
2021/10/09 05:11:36;;;;;;;11.10;7.50;;;-0.70;96.30;;;;;;4993046;28;20197;-76
2021/10/09 05:14:02;;;;;;;16.37;7.20;;;-0.80;96.30;;;;;;4994786;28;20174;-77
2021/10/09 05:16:28;;;;;;;9.50;6.83;;;-0.80;96.30;;;;;;4993263;28;20566;-76
2021/10/09 05:18:53;;;;;;;15.03;7.27;;;-0.80;96.30;;;;;;4994756;28;20641;-76
2021/10/09 05:21:19;;;;;;;19.67;7.40;;;-0.80;96.30;;;;;;4994019;28;20448;-76
2021/10/09 05:23:44;;;;;;;10.87;7.63;;;-0.70;96.30;;;;;;4994709;28;20209;-77
2021/10/09 05:26:10;;;;;;;14.63;7.50;;;-0.70;96.30;;;;;;4992651;28;20216;-77
2021/10/09 05:31:02;;;;;;;16.77;8.23;;;-0.70;96.30;;;;;;4974430;28;20661;-77
2021/10/09 05:35:56;;;;;;;22.63;10.03;;;0.10;96.30;;;;;;4976063;28;20349;-76
2021/10/09 05:38:21;;;;;;;16.50;9.90;;;0.90;96.30;;;;;;4974283;28;20504;-78
2021/10/09 05:40:47;;;;;;;14.03;9.60;;;1.50;96.30;;;;;;4974475;28;20438;-76
2021/10/09 05:43:14;;;;;;;15.97;8.40;;;2.10;96.30;;;;;;4974313;28;20182;-76
2021/10/09 05:45:40;;;;;;;12.27;9.60;;;2.90;96.30;;;;;;4984579;28;20944;-77
2021/10/09 05:48:06;;;;;;;13.70;8.07;;;3.80;96.30;;;;;;4992985;28;20452;-79
2021/10/09 05:50:41;;;;;;;8.80;7.37;;;4.90;96.30;;;;;;4992959;28;20209;-79
2021/10/09 05:53:27;;;;;;;13.17;7.40;;;5.80;96.30;;;;;;4992916;28;20419;-81
2021/10/09 05:56:05;;;;;;;25.10;7.97;;;6.80;96.30;;;;;;4995270;28;20454;-80
2021/10/09 05:58:49;;;;;;;12.03;6.73;;;7.80;96.30;;;;;;4995697;28;20412;-78
2021/10/09 06:01:32;;;;;;;19.00;7.03;;;8.50;96.30;;;;;;4994708;28;20572;-79
2021/10/09 06:26:15;;;;;;;11.27;7.70;;;12.70;89.60;;;;;;4974674;28;20521;-77
2021/10/09 06:45:21;;;;;;;10.80;7.67;;;14.30;82.30;;;;;;4975234;28;20513;-77
2021/10/09 07:01:35;;;;;;;8.90;6.17;;;17.40;74.80;;;;;;4974572;28;21104;-77
2021/10/09 07:04:00;;;;;;;12.00;6.00;;;18.50;72.60;;;;;;4990483;28;20416;-79
2021/10/09 07:06:26;;;;;;;10.60;6.07;;;18.60;72.20;;;;;;4995208;28;20203;-79
2021/10/09 07:08:51;;;;;;;17.03;6.13;;;18.60;71.00;;;;;;4989668;28;20185;-79
2021/10/09 07:11:17;;;;;;;11.80;6.43;;;17.20;72.80;;;;;;4978080;28;20275;-79
2021/10/09 07:13:43;;;;;;;8.00;6.17;;;16.90;75.00;;;;;;4995688;28;20180;-80
2021/10/09 07:16:09;;;;;;;10.73;6.60;;;16.10;77.30;;;;;;4985866;28;20210;-79
2021/10/09 07:18:34;;;;;;;12.80;5.90;;;15.80;77.20;;;;;;4975229;28;20626;-79
2021/10/09 07:21:00;;;;;;;15.50;7.20;;;14.50;81.10;;;;;;4974352;28;20527;-79
2021/10/09 07:23:25;;;;;;;11.20;5.80;;;13.40;84.10;;;;;;4975415;28;20196;-79
2021/10/09 07:25:51;;;;;;;9.90;6.20;;;12.10;89.30;;;;;;4991127;28;20268;-80
2021/10/09 07:28:16;;;;;;;16.20;8.67;;;10.90;93.80;;;;;;4974738;28;20189;-79
2021/10/09 07:30:41;;;;;;;9.90;6.90;;;10.50;94.50;;;;;;4972518;28;20292;-79
2021/10/09 07:33:09;;;;;;;10.03;6.70;;;10.00;96.30;;;;;;4973682;28;20181;-77
2021/10/09 07:35:34;;;;;;;10.50;6.63;;;9.50;96.30;;;;;;4973260;28;20635;-78
2021/10/09 07:37:59;;;;;;;10.43;6.40;;;9.10;96.30;;;;;;4974842;28;20410;-80
2021/10/09 07:40:25;;;;;;;15.53;6.27;;;8.70;96.30;;;;;;4973540;28;20217;-78
2021/10/09 07:42:51;;;;;;;9.27;5.50;;;8.70;96.30;;;;;;4973176;28;20181;-76
2021/10/09 07:45:16;;;;;;;8.70;5.03;;;8.60;96.30;;;;;;4974826;28;20178;-76
2021/10/09 07:47:42;;;;;;;12.20;5.40;;;8.60;96.30;;;;;;4973430;28;20201;-79
2021/10/09 07:50:08;;;;;;;6.50;5.53;;;8.50;96.30;;;;;;4974505;28;20240;-76
2021/10/09 07:52:34;;;;;;;11.73;5.27;;;8.30;96.30;;;;;;4976870;28;20269;-77
2021/10/09 07:54:59;;;;;;;6.20;4.60;;;8.30;96.30;;;;;;4978549;28;20163;-75
2021/10/09 07:57:25;;;;;;;10.13;4.07;;;8.30;96.30;;;;;;4979016;28;20441;-77
2021/10/09 07:59:50;;;;;;;8.37;4.00;;;8.30;95.30;;;;;;4978861;28;20166;-77
2021/10/09 08:02:17;;;;;;;10.37;4.37;;;8.50;96.30;;;;;;4977436;28;20577;-77
2021/10/09 08:04:43;;;;;;;13.17;4.93;;;8.60;94.00;;;;;;4977138;28;20547;-78
2021/10/09 08:07:08;;;;;;;9.97;4.20;;;8.50;96.30;;;;;;4978799;28;20410;-79
2021/10/09 08:09:35;;;;;;;12.60;3.73;;;8.60;96.30;;;;;;4978907;28;20198;-76
2021/10/09 08:12:01;;;;;;;12.97;4.67;;;8.50;95.90;;;;;;4975863;28;20205;-79
2021/10/09 08:14:27;;;;;;;10.60;4.50;;;8.50;96.00;;;;;;4978019;28;20435;-78
2021/10/09 08:16:52;;;;;;;8.43;5.07;;;8.60;95.60;;;;;;4976137;28;20463;-75
2021/10/09 08:19:18;;;;;;;8.40;4.13;;;8.60;95.40;;;;;;4987366;28;20248;-76
2021/10/09 08:21:45;;;;;;;11.30;5.07;;;8.60;95.20;;;;;;5000462;28;20197;-78
2021/10/09 08:26:55;;;;;;;8.43;4.53;;;8.70;96.30;;;;;;4996178;28;20433;-77
2021/10/09 08:40:15;;;;;;;5.67;3.73;;;9.00;96.30;;;;;;4995500;28;20408;-76
2021/10/09 08:42:42;;;;;;;7.57;4.00;;;9.00;95.00;;;;;;4993769;28;20939;-73
2021/10/09 08:45:08;;;;;;;19.63;4.10;;;9.00;93.80;;;;;;4994224;28;20420;-76
2021/10/09 08:47:36;;;;;;;9.03;4.90;;;9.10;95.50;;;;;;4995742;28;20440;-79
2021/10/09 08:50:05;;;;;;;9.10;4.80;;;9.80;93.90;;;;;;4995341;28;20475;-79
2021/10/09 08:52:31;;;;;;;11.43;4.50;;;11.00;91.50;;;;;;4994495;28;20440;-78
2021/10/09 08:54:58;;;;;;;9.60;4.23;;;12.00;84.90;;;;;;4994999;28;20416;-79
2021/10/09 08:57:26;;;;;;;10.60;3.70;;;12.60;84.40;;;;;;4993934;28;20420;-79
2021/10/09 09:00:04;;;;;;;11.03;3.50;;;13.50;81.70;;;;;;4995127;28;20753;-79
2021/10/09 09:02:48;;;;;;;13.00;4.60;;;13.70;80.70;;;;;;4994162;28;20964;-79
2021/10/09 09:05:32;;;;;;;7.03;4.43;;;14.40;78.80;;;;;;4994959;28;20393;-78
2021/10/09 09:33:05;;;;;;;6.23;2.57;;;16.00;71.10;;;;;;4988049;28;20448;-78
2021/10/09 09:35:51;;;;;;;3.00;2.20;;;15.50;67.10;;;;;;4976388;28;20457;-79
2021/10/09 09:41:21;;;;;;;6.70;1.77;;;15.30;64.00;;;;;;4993765;28;20439;-78
2021/10/09 09:43:48;;;;;;;6.40;1.70;;;14.90;59.30;;;;;;4994285;28;20393;-78
2021/10/09 09:46:26;;;;;;;3.37;2.23;;;15.00;61.00;;;;;;4994178;28;21087;-77
2021/10/09 09:48:52;;;;;;;3.10;1.73;;;15.30;61.70;;;;;;4993832;28;20421;-78
2021/10/09 09:51:21;;;;;;;4.83;2.20;;;15.20;60.00;;;;;;4993318;28;20445;-78
2021/10/09 09:53:48;;;;;;;3.73;1.60;;;14.80;60.90;;;;;;4994500;28;20849;-79
2021/10/09 09:56:15;;;;;;;3.70;1.70;;;14.80;58.90;;;;;;4994014;28;20579;-79
2021/10/09 09:58:43;;;;;;;3.40;1.57;;;15.20;61.00;;;;;;4992914;28;20721;-79
2021/10/09 10:01:11;;;;;;;3.67;1.40;;;15.00;59.00;;;;;;4993327;28;20464;-80
2021/10/09 10:03:37;;;;;;;3.50;2.00;;;14.70;57.90;;;;;;4993303;28;20916;-79
2021/10/09 10:06:04;;;;;;;5.83;1.77;;;14.40;60.00;;;;;;4993885;28;20407;-78
2021/10/09 10:08:30;;;;;;;4.53;1.70;;;14.60;59.60;;;;;;4993806;28;20408;-79
2021/10/09 10:10:57;;;;;;;2.53;1.70;;;14.80;61.00;;;;;;4995323;28;20932;-80
2021/10/09 10:13:28;;;;;;;3.17;1.63;;;14.60;59.70;;;;;;4996438;28;20952;-81
2021/10/09 10:15:55;;;;;;;4.53;1.93;;;14.80;60.70;;;;;;4996181;28;20522;-81
2021/10/09 10:18:46;;;;;;;6.97;1.87;;;15.10;60.40;;;;;;4995962;28;20508;-80
2021/10/09 10:21:12;;;;;;;1.67;1.20;;;14.60;59.60;;;;;;4995019;28;20432;-79
2021/10/09 10:23:41;;;;;;;3.40;1.93;;;14.50;60.90;;;;;;4992887;28;20463;-78
2021/10/09 10:26:18;;;;;;;3.70;2.10;;;14.30;60.20;;;;;;4998207;28;20782;-80
2021/10/09 10:28:44;;;;;;;6.13;1.80;;;14.60;62.80;;;;;;4996978;28;20428;-80
2021/10/09 10:31:10;;;;;;;3.97;1.60;;;14.70;58.90;;;;;;4993290;28;20505;-79
2021/10/09 10:33:38;;;;;;;6.50;1.77;;;14.40;57.40;;;;;;4994953;28;20182;-78
2021/10/09 10:36:05;;;;;;;2.90;1.80;;;14.30;60.60;;;;;;4994640;28;20229;-80
2021/10/09 10:38:35;;;;;;;4.87;1.87;;;14.40;58.00;;;;;;4994713;28;20472;-80
2021/10/09 10:41:06;;;;;;;3.13;1.50;;;14.10;59.30;;;;;;4995166;28;20520;-78
2021/10/09 10:43:34;;;;;;;4.40;1.63;;;14.40;59.30;;;;;;4998365;28;20393;-79
2021/10/09 10:46:03;;;;;;;3.40;1.97;;;14.10;58.00;;;;;;4996286;28;20922;-78
2021/10/09 10:48:56;;;;;;;2.50;1.80;;;14.00;58.20;;;;;;4993077;28;20420;-79
2021/10/09 10:57:08;;;;;;;2.57;1.80;;;14.00;57.50;;;;;;4993375;28;20525;-79
2021/10/09 10:59:56;;;;;;;3.00;1.67;;;14.40;56.80;;;;;;4993116;28;20463;-79
2021/10/09 11:02:41;;;;;;;2.80;1.90;;;14.30;57.50;;;;;;4992298;28;20453;-79
2021/10/09 11:05:12;;;;;;;9.30;2.20;;;14.00;56.90;;;;;;4992962;28;20444;-79
2021/10/09 11:07:40;;;;;;;3.87;1.90;;;14.00;57.60;;;;;;4992961;28;20962;-81
2021/10/09 11:10:08;;;;;;;3.20;1.80;;;14.20;59.00;;;;;;4993196;28;20893;-79
2021/10/09 11:12:39;;;;;;;2.50;1.90;;;14.30;58.50;;;;;;4990842;28;20441;-77
2021/10/09 11:15:15;;;;;;;3.90;2.20;;;14.50;58.40;;;;;;4991385;28;20421;-78
2021/10/09 11:17:42;;;;;;;3.20;2.00;;;14.70;56.80;;;;;;4991520;28;20502;-77
2021/10/09 11:20:33;;;;;;;3.33;1.63;;;14.60;54.80;;;;;;4992664;28;20995;-78
2021/10/09 11:23:02;;;;;;;5.07;1.60;;;14.40;56.10;;;;;;4992065;28;20425;-77
2021/10/09 11:25:34;;;;;;;5.30;1.57;;;14.40;55.50;;;;;;4991309;28;20424;-77
2021/10/09 11:28:03;;;;;;;1.87;1.40;;;14.60;55.10;;;;;;4980253;28;20958;-78
2021/10/09 11:30:30;;;;;;;2.43;1.60;;;14.50;52.90;;;;;;4977205;28;20417;-78
2021/10/09 11:32:56;;;;;;;3.37;2.03;;;14.70;54.50;;;;;;4976390;28;20429;-78
2021/10/09 11:35:35;;;;;;;8.80;2.00;;;14.70;54.70;;;;;;4977066;28;20456;-78
2021/10/09 11:38:03;;;;;;;2.50;1.47;;;15.00;55.50;;;;;;4977226;28;20973;-77
2021/10/09 11:40:43;;;;;;;7.73;2.40;;;14.90;53.20;;;;;;4975734;28;20471;-78
2021/10/09 11:43:37;;;;;;;2.63;1.93;;;14.80;53.70;;;;;;4975120;28;20417;-77
2021/10/09 11:56:44;;;;;;;2.67;1.53;;;14.90;51.20;;;;;;4976778;28;20516;-77
2021/10/09 11:59:11;;;;;;;4.47;1.87;;;14.70;52.50;;;;;;4977077;28;20767;-77
2021/10/09 12:01:45;;;;;;;3.87;1.70;;;14.60;51.40;;;;;;4975809;28;20918;-78
2021/10/09 12:04:14;;;;;;;2.23;1.20;;;14.60;51.10;;;;;;4976706;28;20890;-78
2021/10/09 12:06:45;;;;;;;2.53;1.43;;;14.80;52.10;;;;;;4976569;28;20508;-78
2021/10/09 12:09:14;;;;;;;3.13;1.63;;;14.90;51.70;;;;;;4976636;28;20456;-78
2021/10/09 12:11:39;;;;;;;3.10;1.37;;;14.90;51.70;;;;;;4974720;28;20453;-78
2021/10/09 12:14:07;;;;;;;2.77;1.73;;;14.70;50.00;;;;;;4975049;28;20520;-78
2021/10/09 12:16:37;;;;;;;1.50;1.00;;;14.60;49.10;;;;;;4977974;28;20198;-77
2021/10/09 12:19:05;;;;;;;3.47;1.90;;;14.40;48.20;;;;;;4976915;28;20520;-78
2021/10/09 12:21:35;;;;;;;2.33;1.70;;;14.50;50.70;;;;;;4974442;28;20496;-78
2021/10/09 12:24:12;;;;;;;1.90;1.43;;;14.80;50.70;;;;;;4976244;28;20961;-79
2021/10/09 12:26:38;;;;;;;1.50;1.40;;;14.80;51.00;;;;;;4976406;28;20402;-78
2021/10/09 12:29:05;;;;;;;4.77;1.50;;;14.70;51.40;;;;;;4976134;28;20425;-79
2021/10/09 12:31:33;;;;;;;1.60;1.43;;;14.70;50.60;;;;;;4975440;28;20225;-79
2021/10/09 12:33:59;;;;;;;2.07;1.37;;;14.80;52.20;;;;;;4975986;28;21093;-79
2021/10/09 12:36:40;;;;;;;4.43;1.80;;;14.80;52.10;;;;;;4976138;28;20575;-79
2021/10/09 12:39:22;;;;;;;2.60;1.50;;;14.90;54.30;;;;;;4975794;28;20401;-79
2021/10/09 12:41:52;;;;;;;3.33;1.90;;;14.90;54.50;;;;;;4975621;28;20437;-80
2021/10/09 12:44:18;;;;;;;2.80;2.13;;;15.00;52.10;;;;;;4982482;28;20417;-80
2021/10/09 12:46:45;;;;;;;1.63;1.37;;;14.90;52.70;;;;;;4996345;28;20420;-79
2021/10/09 12:49:10;;;;;;;1.67;1.27;;;14.70;50.60;;;;;;4994260;28;20420;-80
2021/10/09 12:51:36;;;;;;;3.73;1.90;;;14.70;50.70;;;;;;4995521;28;20494;-80
2021/10/09 12:54:06;;;;;;;5.03;1.60;;;14.60;51.60;;;;;;4995279;28;20190;-80
2021/10/09 12:56:32;;;;;;;2.03;1.60;;;14.60;50.20;;;;;;4994686;28;20210;-80
2021/10/09 12:58:58;;;;;;;2.27;2.00;;;14.80;51.40;;;;;;4995673;28;20885;-80
2021/10/09 13:01:23;;;;;;;2.50;1.47;;;14.80;52.30;;;;;;4995459;28;20586;-80
2021/10/09 13:03:49;;;;;;;1.90;1.40;;;14.70;53.80;;;;;;4995286;28;20516;-79
2021/10/09 13:06:14;;;;;;;1.97;1.50;;;14.80;53.60;;;;;;4994257;28;20220;-79
2021/10/09 13:08:39;;;;;;;2.73;2.13;;;15.00;53.80;;;;;;4995829;28;20700;-79
2021/10/09 13:11:05;;;;;;;3.70;2.17;;;15.20;53.70;;;;;;4994870;28;20287;-81
2021/10/09 13:13:30;;;;;;;2.50;1.87;;;15.20;53.40;;;;;;4995613;28;20185;-81
2021/10/09 13:15:56;;;;;;;5.90;2.07;;;15.10;53.90;;;;;;4991682;28;20199;-80
2021/10/09 13:18:21;;;;;;;7.03;2.57;;;15.00;55.10;;;;;;4995526;28;20209;-77
2021/10/09 13:20:47;;;;;;;3.90;2.40;;;15.20;56.00;;;;;;4994781;28;20193;-80
2021/10/09 13:23:12;;;;;;;10.80;2.47;;;15.50;56.40;;;;;;4994422;28;20180;-77
2021/10/09 13:25:40;;;;;;;6.83;2.43;;;15.40;55.40;;;;;;4993559;28;20578;-78
2021/10/09 13:28:06;;;;;;;4.97;2.20;;;14.90;56.80;;;;;;4989056;28;20171;-75
2021/10/09 13:30:32;;;;;;;3.93;2.30;;;15.00;56.60;;;;;;4975083;28;20417;-77
2021/10/09 13:32:57;;;;;;;3.73;2.07;;;15.20;55.90;;;;;;4973473;28;20432;-77
2021/10/09 13:35:23;;;;;;;8.70;2.17;;;15.30;56.80;;;;;;4975156;28;20500;-77
2021/10/09 13:37:51;;;;;;;5.33;2.70;;;15.50;54.90;;;;;;4977513;28;20217;-76
2021/10/09 13:40:17;;;;;;;8.90;2.43;;;15.30;55.90;;;;;;4977286;28;20511;-77
2021/10/09 13:42:42;;;;;;;12.70;2.60;;;14.90;56.50;;;;;;4974081;28;20453;-77
2021/10/09 13:45:08;;;;;;;6.57;3.07;;;15.10;57.60;;;;;;4974939;28;20179;-78
2021/10/09 13:47:34;;;;;;;4.20;2.20;;;15.10;55.40;;;;;;4974808;28;20603;-79
2021/10/09 13:50:00;;;;;;;2.80;2.03;;;15.50;55.20;;;;;;4973974;28;20174;-78
2021/10/09 13:52:25;;;;;;;4.93;1.70;;;15.70;55.00;;;;;;4974137;28;20937;-77
2021/10/09 13:54:51;;;;;;;4.90;2.27;;;15.60;54.60;;;;;;4974750;28;20189;-77
2021/10/09 13:57:16;;;;;;;4.10;2.20;;;15.60;56.40;;;;;;4974590;28;20206;-77
2021/10/09 13:59:42;;;;;;;4.60;2.60;;;15.50;57.00;;;;;;4974604;28;20170;-80
2021/10/09 14:02:09;;;;;;;3.47;2.57;;;15.10;58.70;;;;;;4972559;28;20217;-77
2021/10/09 14:04:38;;;;;;;7.27;2.57;;;15.10;58.50;;;;;;4974520;28;20540;-80
2021/10/09 14:07:04;;;;;;;7.90;2.40;;;15.20;56.10;;;;;;4974471;28;20429;-77
2021/10/09 14:09:30;;;;;;;3.23;2.40;;;15.10;56.90;;;;;;4974309;28;20778;-77
2021/10/09 14:11:56;;;;;;;6.50;2.33;;;15.10;58.80;;;;;;4973818;28;20524;-77
2021/10/09 14:14:24;;;;;;;3.00;2.10;;;15.10;58.50;;;;;;4989902;28;20209;-77
2021/10/09 14:16:51;;;;;;;8.77;2.50;;;14.70;56.90;;;;;;4997102;28;20520;-80
2021/10/09 14:19:16;;;;;;;3.77;2.30;;;14.70;57.10;;;;;;5000806;28;20432;-81
2021/10/09 14:21:41;;;;;;;5.43;2.07;;;14.60;57.10;;;;;;4987601;28;20459;-78
2021/10/09 14:24:07;;;;;;;11.03;2.80;;;14.60;57.80;;;;;;4990636;28;20240;-79
2021/10/09 14:26:32;;;;;;;5.80;2.87;;;14.50;57.80;;;;;;4992256;28;20178;-78
2021/10/09 14:28:58;;;;;;;3.70;2.43;;;14.40;58.40;;;;;;4993345;28;20544;-78
2021/10/09 14:31:23;;;;;;;9.23;2.90;;;14.50;59.40;;;;;;4992882;28;20259;-78
2021/10/09 14:33:49;;;;;;;2.87;2.17;;;14.20;59.30;;;;;;4992117;28;20182;-79
2021/10/09 14:36:14;;;;;;;8.37;2.10;;;14.20;59.40;;;;;;4992027;28;20201;-77
2021/10/09 14:38:40;;;;;;;2.53;1.87;;;14.00;59.30;;;;;;4993398;28;20174;-79
2021/10/09 14:41:07;;;;;;;12.00;2.30;;;13.90;60.30;;;;;;4992721;28;20222;-78
2021/10/09 14:43:36;;;;;;;3.80;1.90;;;13.70;60.20;;;;;;4993441;28;20412;-77
2021/10/09 14:48:47;;;;;;;3.10;1.93;;;13.50;61.40;;;;;;4986307;28;20802;-77
2021/10/09 14:51:32;;;;;;;6.80;1.70;;;13.50;61.20;;;;;;4992284;28;20556;-77
2021/10/09 15:18:25;;;;;;;5.00;2.70;;;12.70;67.10;;;;;;4973462;28;20397;-78
2021/10/09 15:20:52;;;;;;;4.93;3.27;;;12.60;67.70;;;;;;4972097;28;20444;-78
2021/10/09 15:23:18;;;;;;;4.53;3.30;;;12.40;68.60;;;;;;4990308;28;20439;-78
2021/10/09 15:25:45;;;;;;;4.97;2.60;;;12.20;70.20;;;;;;4992627;28;20968;-80
2021/10/09 15:28:12;;;;;;;2.87;2.50;;;12.10;69.60;;;;;;4975823;28;20182;-80
2021/10/09 15:30:38;;;;;;;4.73;2.17;;;12.10;70.70;;;;;;4973379;28;20803;-79
2021/10/09 15:33:04;;;;;;;3.70;2.30;;;12.00;70.70;;;;;;4971293;28;20980;-79
2021/10/09 15:35:31;;;;;;;5.77;3.00;;;11.90;71.20;;;;;;4973037;28;20488;-79
2021/10/09 15:37:57;;;;;;;5.70;3.93;;;12.00;71.40;;;;;;4973039;28;20162;-79
2021/10/09 15:40:23;;;;;;;6.30;3.20;;;11.90;73.60;;;;;;4971729;28;20468;-79
2021/10/09 15:42:52;;;;;;;6.07;3.07;;;11.90;75.70;;;;;;4972709;28;20171;-79
2021/10/09 15:45:19;;;;;;;5.10;3.13;;;11.70;77.60;;;;;;4973405;28;20970;-79
2021/10/09 15:47:52;;;;;;;6.80;3.70;;;11.60;79.20;;;;;;4972010;28;20472;-79
2021/10/09 15:50:23;;;;;;;5.63;4.03;;;11.50;80.50;;;;;;4971835;28;20468;-79
2021/10/09 15:52:49;;;;;;;9.70;4.30;;;11.40;81.30;;;;;;4973369;28;20410;-80
2021/10/09 15:55:15;;;;;;;6.90;4.40;;;11.30;82.00;;;;;;4974582;28;20453;-80
2021/10/09 15:57:41;;;;;;;8.33;6.13;;;11.20;83.30;;;;;;4978450;28;20414;-80
2021/10/09 16:00:09;;;;;;;10.77;4.70;;;11.00;83.70;;;;;;4979405;28;20182;-81
2021/10/09 16:02:35;;;;;;;7.27;4.70;;;11.00;84.30;;;;;;4973228;28;20237;-80
2021/10/09 16:05:01;;;;;;;7.90;4.53;;;10.80;86.10;;;;;;4976100;28;20417;-80
2021/10/09 16:07:27;;;;;;;7.40;4.47;;;10.50;86.80;;;;;;4973896;28;20261;-77
2021/10/09 16:09:53;;;;;;;5.33;3.40;;;10.30;87.60;;;;;;4978697;28;20437;-77
2021/10/09 16:12:19;;;;;;;6.80;3.27;;;10.10;88.60;;;;;;4992113;28;20464;-77
2021/10/09 16:14:45;;;;;;;7.27;3.50;;;10.10;88.90;;;;;;4996113;28;20180;-79
2021/10/09 16:17:21;;;;;;;6.43;3.70;;;9.90;90.70;;;;;;4996094;28;20198;-78
2021/10/09 16:19:47;;;;;;;7.27;3.90;;;9.60;91.20;;;;;;4990078;28;20541;-81
2021/10/09 16:22:12;;;;;;;6.97;4.17;;;9.60;91.70;;;;;;4983533;28;20432;-77
2021/10/09 16:24:37;;;;;;;7.43;3.70;;;9.60;91.60;;;;;;4986173;28;20190;-79
2021/10/09 16:27:03;;;;;;;10.17;3.90;;;9.50;91.90;;;;;;4975257;28;20178;-79
2021/10/09 16:29:29;;;;;;;10.93;5.20;;;9.30;93.60;;;;;;4990660;28;20531;-79
2021/10/09 16:31:54;;;;;;;6.60;4.27;;;9.30;93.80;;;;;;4995511;28;20201;-78
2021/10/09 16:34:19;;;;;;;9.67;4.13;;;9.00;94.90;;;;;;4995854;28;20213;-78
2021/10/09 16:36:45;;;;;;;4.30;3.37;;;8.80;96.10;;;;;;4994383;28;20201;-79
2021/10/09 16:39:11;;;;;;;8.43;4.33;;;8.40;96.30;;;;;;4986844;28;20635;-77
2021/10/09 16:41:36;;;;;;;8.90;4.10;;;8.10;96.30;;;;;;4974422;28;20245;-77
2021/10/09 16:44:02;;;;;;;12.07;4.40;;;7.90;96.30;;;;;;4994399;28;20206;-78
2021/10/09 16:46:28;;;;;;;17.93;4.40;;;8.10;96.30;;;;;;4995713;28;20176;-77
2021/10/09 16:48:53;;;;;;;8.00;4.70;;;8.00;96.30;;;;;;4986560;28;20508;-77
2021/10/09 16:51:19;;;;;;;7.23;4.70;;;7.70;96.30;;;;;;4992873;28;20281;-76
2021/10/09 16:53:45;;;;;;;9.30;4.60;;;7.40;96.30;;;;;;4981959;28;20280;-77
2021/10/09 16:56:11;;;;;;;7.70;4.57;;;7.00;96.30;;;;;;4992582;28;20197;-79
2021/10/09 16:58:36;;;;;;;6.57;4.90;;;6.60;96.30;;;;;;4974646;28;20213;-77
2021/10/09 17:01:02;;;;;;;10.57;5.10;;;6.50;96.30;;;;;;4973936;28;20222;-77
2021/10/09 17:03:27;;;;;;;7.37;5.07;;;6.50;96.30;;;;;;4994754;28;20182;-83
2021/10/09 17:05:57;;;;;;;8.00;5.10;;;6.30;96.30;;;;;;4996885;28;20594;-80
2021/10/09 17:08:24;;;;;;;7.67;5.10;;;6.20;96.30;;;;;;4993789;28;20665;-79
2021/10/09 17:10:49;;;;;;;10.20;5.77;;;5.90;96.30;;;;;;4994717;28;20440;-80
2021/10/09 17:13:15;;;;;;;10.43;5.90;;;5.70;96.30;;;;;;4987513;28;20489;-78
2021/10/09 17:15:41;;;;;;;12.20;6.20;;;5.80;96.30;;;;;;4976497;28;20292;-79
2021/10/09 17:18:07;;;;;;;9.40;5.20;;;6.20;96.30;;;;;;4976405;28;20167;-80
2021/10/09 17:20:33;;;;;;;7.13;5.50;;;6.30;96.30;;;;;;4975466;28;20831;-78
2021/10/09 17:22:58;;;;;;;12.23;5.13;;;6.10;96.30;;;;;;4974560;28;20631;-78
2021/10/09 17:25:24;;;;;;;8.57;5.70;;;6.00;96.30;;;;;;4973960;28;20174;-78
2021/10/09 17:27:49;;;;;;;9.33;5.80;;;5.80;96.30;;;;;;4989119;28;20204;-78
2021/10/09 17:30:15;;;;;;;13.27;8.70;;;5.60;96.30;;;;;;4994675;28;20232;-78
2021/10/09 17:32:44;;;;;;;9.83;7.00;;;5.40;96.30;;;;;;4994213;28;20216;-79
2021/10/09 17:35:09;;;;;;;15.67;6.27;;;5.20;96.30;;;;;;4994590;28;20463;-78
2021/10/09 17:37:35;;;;;;;14.90;7.57;;;5.10;96.30;;;;;;4994412;28;20924;-78
2021/10/09 17:40:00;;;;;;;23.77;13.37;;;4.90;96.30;;;;;;4993206;28;20276;-78
2021/10/09 17:42:26;;;;;;;14.80;8.53;;;4.70;96.30;;;;;;4994246;28;20252;-78
2021/10/09 17:44:51;;;;;;;9.60;6.17;;;4.70;96.30;;;;;;4993257;28;20235;-77
2021/10/09 17:47:17;;;;;;;9.00;6.30;;;4.60;96.30;;;;;;4993284;28;20201;-77
2021/10/09 17:49:42;;;;;;;9.33;6.23;;;4.50;96.30;;;;;;4993428;28;20272;-78
2021/10/09 17:52:09;;;;;;;8.93;6.60;;;4.40;96.30;;;;;;4992331;28;20201;-78
2021/10/09 17:54:35;;;;;;;11.10;6.50;;;4.40;96.30;;;;;;4994259;28;20176;-78
2021/10/09 17:57:01;;;;;;;11.50;6.20;;;4.40;96.30;;;;;;4992923;28;20456;-77
2021/10/09 17:59:27;;;;;;;12.00;5.40;;;4.30;96.30;;;;;;4976697;28;20170;-78
2021/10/09 18:01:52;;;;;;;10.63;5.43;;;4.20;96.30;;;;;;4972383;28;20454;-78
2021/10/09 18:04:19;;;;;;;7.07;5.50;;;4.10;96.30;;;;;;4974507;28;20167;-78
2021/10/09 18:06:45;;;;;;;8.83;6.03;;;4.00;96.30;;;;;;4974394;28;20170;-78
2021/10/09 18:09:10;;;;;;;10.20;7.47;;;4.00;96.30;;;;;;4973100;28;20451;-78
2021/10/09 18:11:37;;;;;;;8.30;6.47;;;4.00;96.30;;;;;;4972486;28;20206;-78
2021/10/09 18:14:06;;;;;;;19.03;8.00;;;3.90;96.30;;;;;;4974166;28;20192;-79
2021/10/09 18:16:32;;;;;;;7.80;5.97;;;3.90;96.30;;;;;;4974242;28;20800;-79
2021/10/09 18:18:57;;;;;;;11.20;6.73;;;3.90;96.30;;;;;;4974253;28;20469;-78
2021/10/09 18:21:23;;;;;;;8.17;6.53;;;3.80;96.30;;;;;;4973553;28;20709;-78
2021/10/09 18:23:48;;;;;;;11.20;6.80;;;3.70;96.30;;;;;;4972887;28;20178;-78
2021/10/09 18:26:14;;;;;;;11.93;6.63;;;3.70;96.30;;;;;;4975183;28;20174;-78
2021/10/09 18:28:39;;;;;;;13.30;9.57;;;3.50;96.30;;;;;;4992270;28;20173;-78
2021/10/09 18:31:05;;;;;;;11.37;7.63;;;3.50;96.30;;;;;;4991078;28;20223;-78
2021/10/09 18:33:30;;;;;;;10.63;6.90;;;3.40;96.30;;;;;;4992131;28;20182;-78
2021/10/09 18:35:56;;;;;;;13.33;4.60;;;3.30;96.30;;;;;;4991720;28;20209;-78
2021/10/09 18:38:22;;;;;;;7.60;5.37;;;3.20;96.30;;;;;;4992239;28;20184;-78
2021/10/09 18:40:48;;;;;;;9.40;6.27;;;3.20;96.30;;;;;;4993429;28;20198;-78
2021/10/09 18:43:13;;;;;;;13.10;6.50;;;3.10;96.30;;;;;;4991628;28;20561;-78
2021/10/09 18:45:39;;;;;;;8.87;5.53;;;3.10;96.30;;;;;;4993451;28;20209;-78
2021/10/09 18:48:04;;;;;;;9.23;6.00;;;3.10;96.30;;;;;;4991633;28;20189;-78
2021/10/09 18:50:30;;;;;;;9.40;5.80;;;3.00;96.30;;;;;;4992587;28;20228;-78
2021/10/09 18:52:56;;;;;;;9.83;5.40;;;3.00;96.30;;;;;;4974256;28;20178;-78
2021/10/09 18:55:22;;;;;;;8.57;5.97;;;3.20;96.30;;;;;;4972572;28;20273;-78
2021/10/09 18:57:48;;;;;;;10.00;6.67;;;3.40;96.30;;;;;;4974487;28;20181;-78
2021/10/09 19:00:14;;;;;;;13.67;8.53;;;3.30;96.30;;;;;;4979518;28;20913;-79
2021/10/09 19:02:40;;;;;;;16.00;9.13;;;3.30;96.30;;;;;;4990551;28;20210;-80
2021/10/09 19:05:07;;;;;;;16.53;8.03;;;3.10;96.30;;;;;;4993246;28;20489;-78
2021/10/09 19:07:33;;;;;;;9.17;6.97;;;3.00;96.30;;;;;;4992573;28;20173;-78
2021/10/09 19:09:58;;;;;;;13.77;7.77;;;2.80;96.30;;;;;;4990694;28;20421;-79
2021/10/09 19:12:24;;;;;;;11.77;5.90;;;2.70;96.30;;;;;;4987923;28;20448;-79